createdAt,value
2023-03-12T00:01:59.721Z,-0.51
2023-03-12T00:04:26.636Z,-0.51
2023-03-12T00:06:53.606Z,-0.38
2023-03-12T00:09:20.129Z,-0.53
2023-03-12T00:11:46.672Z,-0.50
2023-03-12T00:14:13.302Z,-0.43
2023-03-12T00:16:39.854Z,-0.51
2023-03-12T00:19:06.574Z,-0.61
2023-03-12T00:21:33.700Z,-0.56
2023-03-12T00:24:00.216Z,-0.45
2023-03-12T00:26:26.773Z,-0.47
2023-03-12T00:28:53.769Z,-0.30
2023-03-12T00:31:32.888Z,-0.21
2023-03-12T00:34:01.029Z,-0.06
2023-03-12T00:36:30.288Z,0.09
2023-03-12T00:38:58.317Z,0.14
2023-03-12T00:41:25.770Z,0.08
2023-03-12T00:43:52.840Z,0.21
2023-03-12T00:46:20.211Z,0.31
2023-03-12T00:48:46.962Z,0.32
2023-03-12T00:51:14.158Z,0.29
2023-03-12T00:53:40.782Z,0.22
2023-03-12T00:56:07.729Z,0.09
2023-03-12T00:58:34.304Z,0.04
2023-03-12T01:01:01.050Z,-0.03
2023-03-12T01:03:27.851Z,-0.09
2023-03-12T01:05:57.208Z,-0.07
2023-03-12T01:08:24.503Z,-0.02
2023-03-12T01:10:51.240Z,0.01
2023-03-12T01:13:17.907Z,0.09
2023-03-12T01:15:44.401Z,0.25
2023-03-12T01:18:11.021Z,0.28
2023-03-12T01:20:37.554Z,0.22
2023-03-12T01:23:04.219Z,0.17
2023-03-12T01:25:30.784Z,0.14
2023-03-12T01:27:57.310Z,0.09
2023-03-12T01:30:23.832Z,0.07
2023-03-12T01:32:51.957Z,0.12
2023-03-12T01:35:18.785Z,0.21
2023-03-12T01:37:45.783Z,0.14
2023-03-12T01:40:20.005Z,0.07
2023-03-12T01:42:57.398Z,0.11
2023-03-12T01:46:03.054Z,-0.07
2023-03-12T01:48:36.413Z,-0.16
2023-03-12T01:51:03.279Z,-0.09
2023-03-12T01:53:30.702Z,-0.16
2023-03-12T01:55:59.290Z,-0.14
2023-03-12T01:58:27.554Z,-0.24
2023-03-12T02:00:54.797Z,-0.43
2023-03-12T02:03:21.462Z,-0.57
2023-03-12T02:05:53.358Z,-0.57
2023-03-12T02:08:20.587Z,-0.61
2023-03-12T02:10:47.553Z,-0.62
2023-03-12T02:13:14.383Z,-0.67
2023-03-12T02:15:41.130Z,-0.72
2023-03-12T02:18:11.386Z,-0.82
2023-03-12T02:21:04.971Z,-0.95
2023-03-12T02:24:02.534Z,-1.01
2023-03-12T02:26:30.935Z,-1.06
2023-03-12T02:29:00.550Z,-1.08
2023-03-12T02:31:33.126Z,-1.16
2023-03-12T02:34:00.606Z,-1.29
2023-03-12T02:36:30.288Z,-1.33
2023-03-12T02:38:57.197Z,-1.39
2023-03-12T02:41:37.670Z,-1.52
2023-03-12T02:44:07.303Z,-1.57
2023-03-12T02:46:38.189Z,-1.63
2023-03-12T02:49:05.240Z,-1.57
2023-03-12T02:51:31.806Z,-1.54
2023-03-12T02:53:58.402Z,-1.44
2023-03-12T02:56:27.216Z,-1.47
2023-03-12T02:58:54.304Z,-1.59
2023-03-12T03:01:21.700Z,-1.53
2023-03-12T03:03:49.158Z,-1.56
2023-03-12T03:06:16.660Z,-1.49
2023-03-12T03:08:43.810Z,-1.54
2023-03-12T03:11:10.940Z,-1.63
2023-03-12T03:13:37.412Z,-1.66
2023-03-12T03:16:08.864Z,-1.64
2023-03-12T03:18:38.059Z,-1.67
2023-03-12T03:21:06.992Z,-1.67
2023-03-12T03:23:33.663Z,-1.64
2023-03-12T03:26:01.183Z,-1.80
2023-03-12T03:28:29.430Z,-1.78
2023-03-12T03:30:58.205Z,-1.84
2023-03-12T03:33:25.152Z,-1.92
2023-03-12T03:35:51.938Z,-1.98
2023-03-12T03:38:18.583Z,-1.91
2023-03-12T03:40:46.181Z,-1.90
2023-03-12T03:43:12.701Z,-1.90
2023-03-12T03:45:39.265Z,-1.92
2023-03-12T03:48:06.385Z,-1.95
2023-03-12T03:50:32.960Z,-2.05
2023-03-12T03:53:00.313Z,-2.01
2023-03-12T03:55:26.916Z,-1.97
2023-03-12T03:57:53.475Z,-1.98
2023-03-12T04:00:20.244Z,-1.97
2023-03-12T04:02:46.857Z,-1.99
2023-03-12T04:05:15.914Z,-1.94
2023-03-12T04:07:42.448Z,-1.94
2023-03-12T04:10:09.702Z,-2.01
2023-03-12T04:12:36.177Z,-2.05
2023-03-12T04:15:02.862Z,-1.95
2023-03-12T04:17:29.375Z,-1.99
2023-03-12T04:19:55.909Z,-2.04
2023-03-12T04:22:22.552Z,-1.94
2023-03-12T04:24:49.179Z,-1.88
2023-03-12T04:27:15.702Z,-1.94
2023-03-12T04:29:42.331Z,-2.02
2023-03-12T04:32:08.914Z,-2.02
2023-03-12T04:34:35.549Z,-2.14
2023-03-12T04:37:03.307Z,-2.16
2023-03-12T04:39:29.913Z,-2.21
2023-03-12T04:41:56.522Z,-2.21
2023-03-12T04:44:23.216Z,-2.22
2023-03-12T04:46:49.959Z,-2.22
2023-03-12T04:49:16.622Z,-2.25
2023-03-12T04:51:43.291Z,-2.25
2023-03-12T04:54:09.940Z,-2.28
2023-03-12T04:56:36.446Z,-2.25
2023-03-12T04:59:03.017Z,-2.29
2023-03-12T05:01:32.184Z,-2.36
2023-03-12T05:03:59.062Z,-2.25
2023-03-12T05:06:26.059Z,-2.26
2023-03-12T05:08:52.989Z,-2.32
2023-03-12T05:11:20.415Z,-2.39
2023-03-12T05:13:47.109Z,-2.36
2023-03-12T05:16:15.283Z,-2.48
2023-03-12T05:18:42.834Z,-2.49
2023-03-12T05:21:14.844Z,-2.35
2023-03-12T05:23:42.576Z,-2.33
2023-03-12T05:26:22.112Z,-2.32
2023-03-12T05:28:49.128Z,-2.31
2023-03-12T05:31:16.586Z,-2.39
2023-03-12T05:33:43.289Z,-2.33
2023-03-12T05:36:10.999Z,-2.32
2023-03-12T05:38:37.584Z,-2.38
2023-03-12T05:41:04.629Z,-2.36
2023-03-12T05:43:31.464Z,-2.42
2023-03-12T05:46:03.828Z,-2.50
2023-03-12T05:48:31.637Z,-2.48
2023-03-12T05:50:58.372Z,-2.50
2023-03-12T05:53:24.945Z,-2.45
2023-03-12T05:55:51.576Z,-2.36
2023-03-12T05:58:18.187Z,-2.26
2023-03-12T06:00:45.265Z,-2.04
2023-03-12T06:03:12.227Z,-1.84
2023-03-12T06:05:39.080Z,-1.67
2023-03-12T06:08:06.535Z,-1.68
2023-03-12T06:10:33.132Z,-1.77
2023-03-12T06:12:59.720Z,-1.78
2023-03-12T06:15:26.341Z,-1.80
2023-03-12T06:17:52.904Z,-1.68
2023-03-12T06:20:19.438Z,-1.52
2023-03-12T06:22:46.325Z,-1.40
2023-03-12T06:25:12.906Z,-1.16
2023-03-12T06:27:41.100Z,-0.96
2023-03-12T06:30:08.379Z,-0.75
2023-03-12T06:32:34.955Z,-0.51
2023-03-12T06:35:01.675Z,-0.34
2023-03-12T06:37:28.291Z,-0.13
2023-03-12T06:39:55.094Z,0.12
2023-03-12T06:42:22.573Z,0.35
2023-03-12T06:44:52.312Z,0.41
2023-03-12T06:47:19.197Z,0.42
2023-03-12T06:49:45.753Z,0.90
2023-03-12T06:52:12.286Z,1.45
2023-03-12T06:54:38.879Z,2.14
2023-03-12T06:57:05.581Z,1.79
2023-03-12T06:59:32.330Z,1.54
2023-03-12T07:01:58.910Z,1.92
2023-03-12T07:04:25.556Z,1.52
2023-03-12T07:06:52.363Z,1.78
2023-03-12T07:09:20.124Z,1.62
2023-03-12T07:11:46.719Z,2.13
2023-03-12T07:14:13.693Z,2.29
2023-03-12T07:16:40.347Z,2.30
2023-03-12T07:19:06.960Z,2.85
2023-03-12T07:21:33.573Z,3.15
2023-03-12T07:24:00.918Z,3.46
2023-03-12T07:26:27.694Z,3.32
2023-03-12T07:28:54.303Z,3.67
2023-03-12T07:31:20.894Z,4.22
2023-03-12T07:33:47.468Z,4.13
2023-03-12T07:36:14.321Z,4.15
2023-03-12T07:38:41.028Z,5.34
2023-03-12T07:41:07.672Z,5.52
2023-03-12T07:43:34.390Z,5.43
2023-03-12T07:46:01.064Z,5.11
2023-03-12T07:48:27.585Z,4.64
2023-03-12T07:50:54.133Z,4.56
2023-03-12T07:53:20.984Z,5.36
2023-03-12T07:55:48.467Z,5.89
2023-03-12T07:58:16.602Z,5.30
2023-03-12T08:00:44.278Z,6.11
2023-03-12T08:03:11.523Z,6.07
2023-03-12T08:05:38.269Z,6.30
2023-03-12T08:08:04.997Z,6.31
2023-03-12T08:10:31.853Z,6.20
2023-03-12T08:12:58.402Z,5.92
2023-03-12T08:15:25.350Z,5.32
2023-03-12T08:17:51.872Z,4.87
2023-03-12T08:20:18.528Z,5.55
2023-03-12T08:22:45.031Z,5.58
2023-03-12T08:25:12.021Z,5.73
2023-03-12T08:27:38.679Z,6.82
2023-03-12T08:30:06.746Z,7.89
2023-03-12T08:32:33.510Z,9.15
2023-03-12T08:35:00.274Z,8.63
2023-03-12T08:37:26.836Z,8.89
2023-03-12T08:39:53.374Z,9.01
2023-03-12T08:42:19.963Z,8.57
2023-03-12T08:44:46.539Z,9.35
2023-03-12T08:47:13.158Z,9.19
2023-03-12T08:49:39.766Z,9.98
2023-03-12T08:52:06.292Z,10.95
2023-03-12T08:54:32.863Z,12.22
2023-03-12T08:57:00.328Z,13.19
2023-03-12T08:59:27.015Z,12.67
2023-03-12T09:01:53.546Z,12.12
2023-03-12T09:04:20.224Z,12.36
2023-03-12T09:06:46.838Z,12.65
2023-03-12T09:09:13.521Z,12.76
2023-03-12T09:11:40.905Z,14.13
2023-03-12T09:14:46.272Z,14.81
2023-03-12T09:16:54.334Z,14.58
2023-03-12T09:19:21.062Z,12.98
2023-03-12T09:21:47.642Z,11.70
2023-03-12T09:24:14.191Z,10.85
2023-03-12T09:26:40.759Z,10.44
2023-03-12T09:29:07.240Z,10.44
2023-03-12T09:31:34.602Z,11.28
2023-03-12T09:34:01.266Z,10.82
2023-03-12T09:36:28.125Z,10.55
2023-03-12T09:38:54.827Z,10.46
2023-03-12T09:41:28.063Z,10.51
2023-03-12T09:44:04.772Z,9.66
2023-03-12T09:46:37.539Z,9.79
2023-03-12T09:49:14.406Z,9.01
2023-03-12T09:51:49.222Z,8.70
2023-03-12T09:54:28.171Z,9.18
2023-03-12T09:57:00.440Z,9.39
2023-03-12T09:59:27.115Z,9.55
2023-03-12T10:02:01.642Z,8.75
2023-03-12T10:04:58.439Z,9.14
2023-03-12T10:07:42.823Z,10.24
2023-03-12T10:10:22.678Z,9.97
2023-03-12T10:13:40.056Z,9.57
2023-03-12T10:16:34.208Z,7.85
2023-03-12T10:19:14.189Z,7.99
2023-03-12T10:21:56.887Z,8.71
2023-03-12T10:24:45.179Z,9.29
2023-03-12T10:27:15.460Z,9.38
2023-03-12T10:29:44.981Z,9.39
2023-03-12T10:32:11.785Z,10.14
2023-03-12T10:34:41.166Z,11.72
2023-03-12T10:37:17.155Z,11.82
2023-03-12T10:39:44.651Z,13.38
2023-03-12T10:42:18.353Z,13.62
2023-03-12T10:44:49.051Z,12.22
2023-03-12T10:47:35.813Z,11.77
2023-03-12T10:50:22.544Z,10.72
2023-03-12T10:52:51.949Z,10.65
2023-03-12T10:55:26.414Z,9.73
2023-03-12T10:57:53.726Z,10.63
2023-03-12T11:00:28.942Z,10.11
2023-03-12T11:03:05.433Z,9.52
2023-03-12T11:05:49.049Z,10.15
2023-03-12T11:08:27.889Z,8.53
2023-03-12T11:10:58.335Z,9.07
2023-03-12T11:13:28.398Z,9.83
2023-03-12T11:15:57.073Z,8.81
2023-03-12T11:18:34.244Z,9.35
2023-03-12T11:21:09.912Z,9.84
2023-03-12T11:23:44.912Z,9.43
2023-03-12T11:26:17.833Z,9.19
2023-03-12T11:28:48.812Z,10.41
2023-03-12T11:31:33.375Z,11.67
2023-03-12T11:34:19.211Z,11.58
2023-03-12T11:36:53.531Z,10.51
2023-03-12T11:39:41.114Z,10.93
2023-03-12T11:42:51.824Z,10.95
2023-03-12T11:45:47.260Z,10.89
2023-03-12T11:48:37.120Z,9.69
2023-03-12T11:51:27.788Z,9.40
2023-03-12T11:54:06.125Z,9.62
2023-03-12T11:57:01.967Z,8.29
2023-03-12T11:59:48.733Z,7.82
2023-03-12T12:02:56.238Z,8.84
2023-03-12T12:05:34.533Z,8.68
2023-03-12T12:08:39.378Z,9.26
2023-03-12T12:11:17.318Z,9.05
2023-03-12T12:13:51.195Z,8.64
2023-03-12T12:16:31.354Z,8.97
2023-03-12T12:19:02.199Z,9.00
2023-03-12T12:21:42.020Z,9.01
2023-03-12T12:24:18.325Z,8.78
2023-03-12T12:26:54.753Z,8.34
2023-03-12T12:29:31.288Z,8.52
2023-03-12T12:32:00.636Z,8.28
2023-03-12T12:34:49.177Z,8.50
2023-03-12T12:37:46.410Z,8.77
2023-03-12T12:40:37.517Z,9.15
2023-03-12T12:43:25.242Z,9.05
2023-03-12T12:45:53.714Z,8.87
2023-03-12T12:48:38.127Z,8.68
2023-03-12T12:51:08.706Z,7.95
2023-03-12T12:53:54.101Z,8.50
2023-03-12T12:56:28.754Z,8.29
2023-03-12T12:59:27.301Z,8.75
2023-03-12T13:01:56.182Z,7.91
2023-03-12T13:04:34.637Z,8.09
2023-03-12T13:07:13.323Z,7.67
2023-03-12T13:09:43.594Z,7.37
2023-03-12T13:12:25.200Z,7.34
2023-03-12T13:14:54.739Z,7.26
2023-03-12T13:17:21.772Z,7.19
2023-03-12T13:20:00.837Z,7.33
2023-03-12T13:22:55.512Z,7.33
2023-03-12T13:25:40.090Z,6.95
2023-03-12T13:28:30.279Z,7.22
2023-03-12T13:30:57.832Z,7.40
2023-03-12T13:33:41.386Z,7.37
2023-03-12T13:36:24.083Z,7.04
2023-03-12T13:39:05.782Z,6.78
2023-03-12T13:41:44.446Z,6.81
2023-03-12T13:44:23.008Z,6.58
2023-03-12T13:47:28.592Z,7.07
2023-03-12T13:49:59.472Z,7.24
2023-03-12T13:52:30.762Z,7.27
2023-03-12T13:55:07.244Z,7.14
2023-03-12T13:57:48.032Z,7.02
2023-03-12T14:00:24.609Z,7.13
2023-03-12T14:02:59.155Z,6.93
2023-03-12T14:05:27.627Z,7.10
2023-03-12T14:08:16.172Z,7.14
2023-03-12T14:10:56.981Z,6.67
2023-03-12T14:13:44.428Z,6.46
2023-03-12T14:16:26.410Z,6.65
2023-03-12T14:18:53.861Z,6.42
2023-03-12T14:21:23.600Z,6.55
2023-03-12T14:23:57.298Z,6.34
2023-03-12T14:26:28.201Z,6.32
2023-03-12T14:29:00.267Z,6.35
2023-03-12T14:31:29.107Z,6.06
2023-03-12T14:34:01.924Z,6.02
2023-03-12T14:36:46.566Z,5.97
2023-03-12T14:39:32.203Z,6.07
2023-03-12T14:42:05.325Z,5.89
2023-03-12T14:44:33.974Z,5.52
2023-03-12T14:47:11.133Z,5.39
2023-03-12T14:49:42.939Z,5.45
2023-03-12T14:52:27.079Z,5.24
2023-03-12T14:55:00.310Z,5.34
2023-03-12T14:57:26.964Z,5.25
2023-03-12T14:59:56.302Z,5.36
2023-03-12T15:02:23.847Z,5.39
2023-03-12T15:04:55.220Z,5.34
2023-03-12T15:07:35.718Z,5.53
2023-03-12T15:10:06.945Z,5.28
2023-03-12T15:12:37.091Z,5.41
2023-03-12T15:15:10.243Z,5.30
2023-03-12T15:17:37.385Z,5.45
2023-03-12T15:20:09.242Z,5.21
2023-03-12T15:22:36.494Z,5.25
2023-03-12T15:25:14.900Z,5.39
2023-03-12T15:27:41.361Z,5.14
2023-03-12T15:30:27.620Z,5.02
2023-03-12T15:33:26.542Z,4.88
2023-03-12T15:36:14.826Z,4.74
2023-03-12T15:38:50.016Z,4.64
2023-03-12T15:41:23.163Z,4.54
2023-03-12T15:43:54.479Z,4.66
2023-03-12T15:46:22.274Z,4.67
2023-03-12T15:48:57.742Z,4.53
2023-03-12T15:51:36.290Z,4.32
2023-03-12T15:54:14.799Z,4.18
2023-03-12T15:56:41.343Z,4.23
2023-03-12T15:59:28.404Z,4.35
2023-03-12T16:01:56.845Z,4.21
2023-03-12T16:04:24.530Z,4.21
2023-03-12T16:06:51.738Z,4.26
2023-03-12T16:09:22.232Z,4.31
2023-03-12T16:11:49.154Z,4.16
2023-03-12T16:14:30.667Z,4.13
2023-03-12T16:16:57.511Z,4.23
2023-03-12T16:19:26.609Z,4.09
2023-03-12T16:21:53.174Z,4.15
2023-03-12T16:24:19.743Z,4.09
2023-03-12T16:26:58.016Z,3.73
2023-03-12T16:29:33.214Z,3.75
2023-03-12T16:32:00.508Z,3.66
2023-03-12T16:34:27.629Z,3.75
2023-03-12T16:36:54.399Z,3.81
2023-03-12T16:39:20.998Z,3.81
2023-03-12T16:41:47.852Z,3.69
2023-03-12T16:44:20.311Z,3.77
2023-03-12T16:46:47.275Z,3.88
2023-03-12T16:49:16.561Z,3.74
2023-03-12T16:51:43.265Z,3.75
2023-03-12T16:54:11.982Z,3.82
2023-03-12T16:56:46.180Z,3.67
2023-03-12T16:59:23.594Z,3.57
2023-03-12T17:01:50.527Z,3.51
2023-03-12T17:04:17.103Z,3.50
2023-03-12T17:06:43.675Z,3.53
2023-03-12T17:09:10.362Z,3.46
2023-03-12T17:11:38.100Z,3.46
2023-03-12T17:14:16.366Z,3.47
2023-03-12T17:16:43.125Z,3.40
2023-03-12T17:19:09.818Z,3.34
2023-03-12T17:21:37.331Z,3.22
2023-03-12T17:24:04.229Z,3.33
2023-03-12T17:26:31.033Z,3.29
2023-03-12T17:28:57.571Z,3.27
2023-03-12T17:31:24.697Z,3.22
2023-03-12T17:33:51.347Z,3.27
2023-03-12T17:36:17.894Z,3.23
2023-03-12T17:38:44.473Z,3.24
2023-03-12T17:41:25.522Z,3.24
2023-03-12T17:43:52.994Z,3.26
2023-03-12T17:46:19.522Z,3.22
2023-03-12T17:48:46.183Z,3.30
2023-03-12T17:51:12.872Z,3.16
2023-03-12T17:53:39.710Z,3.19
2023-03-12T17:56:06.998Z,3.19
2023-03-12T17:58:33.700Z,2.95
2023-03-12T18:01:00.786Z,2.96
2023-03-12T18:03:27.430Z,3.13
2023-03-12T18:05:54.281Z,3.03
2023-03-12T18:08:21.669Z,3.09
2023-03-12T18:10:48.958Z,3.09
2023-03-12T18:13:15.684Z,2.96
2023-03-12T18:15:42.216Z,2.93
2023-03-12T18:18:08.845Z,2.95
2023-03-12T18:20:39.495Z,2.96
2023-03-12T18:23:06.674Z,2.96
2023-03-12T18:25:33.419Z,2.91
2023-03-12T18:28:00.041Z,2.91
2023-03-12T18:30:28.134Z,2.98
2023-03-12T18:32:54.868Z,2.98
2023-03-12T18:35:22.642Z,2.92
2023-03-12T18:37:51.775Z,2.98
2023-03-12T18:40:18.317Z,2.87
2023-03-12T18:42:44.776Z,2.88
2023-03-12T18:45:11.870Z,2.89
2023-03-12T18:47:44.604Z,2.98
2023-03-12T18:50:12.342Z,2.95
2023-03-12T18:52:38.882Z,2.91
2023-03-12T18:55:05.631Z,2.92
2023-03-12T18:57:32.263Z,2.92
2023-03-12T18:59:59.413Z,2.89
2023-03-12T19:02:26.155Z,2.91
2023-03-12T19:04:55.838Z,2.92
2023-03-12T19:07:23.138Z,2.82
2023-03-12T19:09:50.199Z,2.78
2023-03-12T19:12:16.783Z,2.84
2023-03-12T19:14:43.355Z,2.79
2023-03-12T19:17:09.871Z,2.79
2023-03-12T19:19:36.447Z,2.82
2023-03-12T19:22:04.524Z,2.91
2023-03-12T19:24:31.158Z,2.88
2023-03-12T19:26:57.695Z,2.95
2023-03-12T19:29:24.433Z,3.05
2023-03-12T19:31:51.136Z,3.06
2023-03-12T19:34:17.906Z,3.08
2023-03-12T19:36:44.483Z,3.06
2023-03-12T19:39:21.156Z,3.01
2023-03-12T19:41:48.531Z,3.02
2023-03-12T19:44:14.982Z,3.02
2023-03-12T19:46:43.190Z,2.96
2023-03-12T19:49:09.844Z,3.03
2023-03-12T19:51:36.643Z,3.06
2023-03-12T19:54:03.235Z,3.10
2023-03-12T19:56:29.780Z,3.08
2023-03-12T19:58:56.378Z,3.13
2023-03-12T20:01:22.948Z,3.09
2023-03-12T20:03:49.631Z,3.16
2023-03-12T20:06:16.284Z,3.16
2023-03-12T20:08:44.442Z,3.20
2023-03-12T20:11:11.037Z,3.29
2023-03-12T20:13:38.674Z,3.37
2023-03-12T20:16:06.713Z,3.30
2023-03-12T20:18:33.499Z,3.30
2023-03-12T20:21:00.140Z,3.39
2023-03-12T20:23:26.818Z,3.36
2023-03-12T20:25:53.432Z,3.50
2023-03-12T20:28:20.072Z,3.49
2023-03-12T20:30:46.669Z,3.51
2023-03-12T20:33:13.615Z,3.56
2023-03-12T20:35:40.408Z,3.60
2023-03-12T20:38:07.027Z,3.59
2023-03-12T20:40:33.570Z,3.59
2023-03-12T20:43:04.603Z,3.66
2023-03-12T20:45:34.960Z,3.64
2023-03-12T20:48:01.719Z,3.73
2023-03-12T20:50:28.741Z,3.80
2023-03-12T20:52:55.320Z,3.81
2023-03-12T20:55:22.004Z,3.84
2023-03-12T20:57:48.987Z,3.85
2023-03-12T21:00:15.850Z,3.88
2023-03-12T21:02:42.627Z,3.97
2023-03-12T21:05:11.287Z,3.97
2023-03-12T21:07:37.952Z,3.98
2023-03-12T21:10:05.488Z,4.02
2023-03-12T21:12:32.287Z,4.09
2023-03-12T21:15:06.218Z,4.16
2023-03-12T21:17:34.368Z,4.25
2023-03-12T21:20:02.133Z,4.31
2023-03-12T21:22:31.844Z,4.28
2023-03-12T21:24:58.420Z,4.31
2023-03-12T21:27:24.928Z,4.32
2023-03-12T21:29:53.067Z,4.45
2023-03-12T21:32:20.829Z,4.40
2023-03-12T21:34:48.023Z,4.40
2023-03-12T21:37:15.140Z,4.45
2023-03-12T21:39:42.667Z,4.43
2023-03-12T21:42:09.554Z,4.53
2023-03-12T21:44:37.038Z,4.49
2023-03-12T21:47:04.790Z,4.54
2023-03-12T21:49:34.020Z,4.59
2023-03-12T21:52:01.242Z,4.59
2023-03-12T21:54:32.790Z,4.62
2023-03-12T21:57:02.648Z,4.69
2023-03-12T21:59:30.358Z,4.73
2023-03-12T22:01:57.769Z,4.70
2023-03-12T22:04:24.711Z,4.76
2023-03-12T22:06:51.618Z,4.76
2023-03-12T22:09:18.271Z,4.76
2023-03-12T22:11:44.904Z,4.81
2023-03-12T22:14:11.406Z,4.85
2023-03-12T22:16:38.013Z,4.88
2023-03-12T22:19:04.700Z,4.88
2023-03-12T22:21:31.235Z,4.88
2023-03-12T22:23:57.788Z,4.97
2023-03-12T22:26:26.709Z,4.94
2023-03-12T22:28:55.672Z,4.95
2023-03-12T22:31:23.766Z,4.93
2023-03-12T22:33:50.387Z,4.95
2023-03-12T22:36:18.554Z,5.02
2023-03-12T22:38:47.573Z,5.00
2023-03-12T22:41:18.295Z,4.93
2023-03-12T22:43:45.662Z,4.91
2023-03-12T22:46:14.063Z,4.87
2023-03-12T22:48:40.726Z,4.91
2023-03-12T22:51:07.338Z,5.00
2023-03-12T22:53:34.559Z,4.95
2023-03-12T22:56:03.737Z,5.05
2023-03-12T22:58:30.505Z,5.00
2023-03-12T23:01:10.750Z,4.98
2023-03-12T23:03:38.899Z,5.01
2023-03-12T23:06:10.326Z,5.02
2023-03-12T23:08:37.069Z,5.02
2023-03-12T23:11:05.179Z,5.05
2023-03-12T23:13:34.073Z,5.02
2023-03-12T23:16:08.681Z,5.07
2023-03-12T23:18:36.098Z,5.05
2023-03-12T23:21:05.931Z,5.10
2023-03-12T23:23:33.253Z,5.10
2023-03-12T23:26:00.842Z,5.15
2023-03-12T23:28:29.025Z,5.12
2023-03-12T23:30:58.383Z,5.17
2023-03-12T23:33:26.324Z,5.07
2023-03-12T23:35:58.666Z,5.12
2023-03-12T23:38:26.564Z,5.08
2023-03-12T23:40:53.421Z,5.10
2023-03-12T23:43:20.221Z,5.17
2023-03-12T23:45:46.831Z,5.05
2023-03-12T23:48:13.449Z,5.01
2023-03-12T23:50:41.124Z,5.00
2023-03-12T23:53:07.794Z,5.00
2023-03-12T23:55:34.473Z,5.00
2023-03-12T23:58:00.970Z,5.04
